sensor_id;sensor_type;location;lat;lon;timestamp;temperature;humidity
13960;DHT22;7052;51.050;3.716;2022-08-06T00:01:39;16.30;84.90
13960;DHT22;7052;51.050;3.716;2022-08-06T00:04:05;16.30;84.60
13960;DHT22;7052;51.050;3.716;2022-08-06T00:06:32;16.40;84.60
13960;DHT22;7052;51.050;3.716;2022-08-06T00:08:59;16.50;84.90
13960;DHT22;7052;51.050;3.716;2022-08-06T00:11:26;16.30;85.10
13960;DHT22;7052;51.050;3.716;2022-08-06T00:13:53;16.30;85.60
13960;DHT22;7052;51.050;3.716;2022-08-06T00:16:20;16.30;86.00
13960;DHT22;7052;51.050;3.716;2022-08-06T00:18:48;16.30;86.20
13960;DHT22;7052;51.050;3.716;2022-08-06T00:21:15;16.30;86.40
13960;DHT22;7052;51.050;3.716;2022-08-06T00:23:42;16.20;86.70
13960;DHT22;7052;51.050;3.716;2022-08-06T00:26:08;16.20;87.30
13960;DHT22;7052;51.050;3.716;2022-08-06T00:28:35;16.20;87.80
13960;DHT22;7052;51.050;3.716;2022-08-06T00:31:03;16.20;88.40
13960;DHT22;7052;51.050;3.716;2022-08-06T00:33:31;16.20;89.50
13960;DHT22;7052;51.050;3.716;2022-08-06T00:35:59;16.10;90.10
13960;DHT22;7052;51.050;3.716;2022-08-06T00:38:26;16.10;90.30
13960;DHT22;7052;51.050;3.716;2022-08-06T00:40:53;16.10;90.90
13960;DHT22;7052;51.050;3.716;2022-08-06T00:43:20;16.00;91.40
13960;DHT22;7052;51.050;3.716;2022-08-06T00:45:47;16.00;91.90
13960;DHT22;7052;51.050;3.716;2022-08-06T00:48:14;15.90;92.30
13960;DHT22;7052;51.050;3.716;2022-08-06T00:50:41;15.80;92.60
13960;DHT22;7052;51.050;3.716;2022-08-06T00:53:09;15.80;93.00
13960;DHT22;7052;51.050;3.716;2022-08-06T00:55:36;15.70;93.50
13960;DHT22;7052;51.050;3.716;2022-08-06T00:58:03;15.70;93.90
13960;DHT22;7052;51.050;3.716;2022-08-06T01:00:30;15.70;93.70
13960;DHT22;7052;51.050;3.716;2022-08-06T01:02:57;15.70;93.70
13960;DHT22;7052;51.050;3.716;2022-08-06T01:05:24;15.70;94.00
13960;DHT22;7052;51.050;3.716;2022-08-06T01:07:51;15.70;93.60
13960;DHT22;7052;51.050;3.716;2022-08-06T01:10:21;15.70;93.60
13960;DHT22;7052;51.050;3.716;2022-08-06T01:12:48;15.70;93.70
13960;DHT22;7052;51.050;3.716;2022-08-06T01:15:15;15.70;93.60
13960;DHT22;7052;51.050;3.716;2022-08-06T01:17:46;15.60;93.80
13960;DHT22;7052;51.050;3.716;2022-08-06T01:20:22;15.60;93.80
13960;DHT22;7052;51.050;3.716;2022-08-06T01:23:11;15.60;93.90
13960;DHT22;7052;51.050;3.716;2022-08-06T01:26:06;15.60;94.00
13960;DHT22;7052;51.050;3.716;2022-08-06T01:28:42;15.60;94.20
13960;DHT22;7052;51.050;3.716;2022-08-06T01:31:12;15.60;94.20
13960;DHT22;7052;51.050;3.716;2022-08-06T01:33:44;15.60;94.20
13960;DHT22;7052;51.050;3.716;2022-08-06T01:36:19;15.60;94.20
13960;DHT22;7052;51.050;3.716;2022-08-06T01:38:50;15.60;94.00
13960;DHT22;7052;51.050;3.716;2022-08-06T01:41:22;15.60;94.20
13960;DHT22;7052;51.050;3.716;2022-08-06T01:44:20;15.50;94.40
13960;DHT22;7052;51.050;3.716;2022-08-06T01:46:51;15.60;94.60
13960;DHT22;7052;51.050;3.716;2022-08-06T01:49:23;15.50;94.60
13960;DHT22;7052;51.050;3.716;2022-08-06T01:51:52;15.50;94.70
13960;DHT22;7052;51.050;3.716;2022-08-06T01:54:21;15.50;94.90
13960;DHT22;7052;51.050;3.716;2022-08-06T01:56:51;15.40;95.00
13960;DHT22;7052;51.050;3.716;2022-08-06T01:59:23;15.40;95.20
13960;DHT22;7052;51.050;3.716;2022-08-06T02:01:53;15.30;95.30
13960;DHT22;7052;51.050;3.716;2022-08-06T02:04:24;15.30;95.50
13960;DHT22;7052;51.050;3.716;2022-08-06T02:06:53;15.30;95.60
13960;DHT22;7052;51.050;3.716;2022-08-06T02:09:22;15.30;95.60
13960;DHT22;7052;51.050;3.716;2022-08-06T02:11:53;15.40;95.60
13960;DHT22;7052;51.050;3.716;2022-08-06T02:14:24;15.30;95.50
13960;DHT22;7052;51.050;3.716;2022-08-06T02:16:54;15.30;95.30
13960;DHT22;7052;51.050;3.716;2022-08-06T02:19:23;15.30;95.20
13960;DHT22;7052;51.050;3.716;2022-08-06T02:21:51;15.30;95.10
13960;DHT22;7052;51.050;3.716;2022-08-06T02:24:19;15.30;94.90
13960;DHT22;7052;51.050;3.716;2022-08-06T02:26:49;15.30;94.80
13960;DHT22;7052;51.050;3.716;2022-08-06T02:29:17;15.30;94.70
13960;DHT22;7052;51.050;3.716;2022-08-06T02:31:47;15.30;94.70
13960;DHT22;7052;51.050;3.716;2022-08-06T02:34:14;15.30;94.70
13960;DHT22;7052;51.050;3.716;2022-08-06T02:36:43;15.30;94.60
13960;DHT22;7052;51.050;3.716;2022-08-06T02:39:15;15.30;94.60
13960;DHT22;7052;51.050;3.716;2022-08-06T02:41:52;15.30;94.60
13960;DHT22;7052;51.050;3.716;2022-08-06T02:44:32;15.20;94.60
13960;DHT22;7052;51.050;3.716;2022-08-06T02:47:07;15.20;94.70
13960;DHT22;7052;51.050;3.716;2022-08-06T02:49:37;15.20;95.00
13960;DHT22;7052;51.050;3.716;2022-08-06T02:52:13;15.20;95.10
13960;DHT22;7052;51.050;3.716;2022-08-06T02:54:44;15.20;95.10
13960;DHT22;7052;51.050;3.716;2022-08-06T02:57:22;15.20;95.20
13960;DHT22;7052;51.050;3.716;2022-08-06T02:59:54;15.20;95.20
13960;DHT22;7052;51.050;3.716;2022-08-06T03:02:25;15.20;95.50
13960;DHT22;7052;51.050;3.716;2022-08-06T03:04:53;15.20;95.90
13960;DHT22;7052;51.050;3.716;2022-08-06T03:07:23;15.20;96.30
13960;DHT22;7052;51.050;3.716;2022-08-06T03:09:52;15.10;96.60
13960;DHT22;7052;51.050;3.716;2022-08-06T03:12:20;15.10;96.80
13960;DHT22;7052;51.050;3.716;2022-08-06T03:14:48;15.00;97.10
13960;DHT22;7052;51.050;3.716;2022-08-06T03:17:17;15.00;97.50
13960;DHT22;7052;51.050;3.716;2022-08-06T03:19:48;15.00;97.90
13960;DHT22;7052;51.050;3.716;2022-08-06T03:22:16;14.90;97.80
13960;DHT22;7052;51.050;3.716;2022-08-06T03:24:45;14.90;98.00
13960;DHT22;7052;51.050;3.716;2022-08-06T03:27:12;14.90;98.20
13960;DHT22;7052;51.050;3.716;2022-08-06T03:29:42;14.90;98.30
13960;DHT22;7052;51.050;3.716;2022-08-06T03:32:12;14.90;98.30
13960;DHT22;7052;51.050;3.716;2022-08-06T03:34:40;15.00;98.30
13960;DHT22;7052;51.050;3.716;2022-08-06T03:37:10;15.00;98.10
13960;DHT22;7052;51.050;3.716;2022-08-06T03:39:41;15.00;97.90
13960;DHT22;7052;51.050;3.716;2022-08-06T03:42:08;15.00;97.90
13960;DHT22;7052;51.050;3.716;2022-08-06T03:44:35;15.00;97.80
13960;DHT22;7052;51.050;3.716;2022-08-06T03:47:05;15.00;97.70
13960;DHT22;7052;51.050;3.716;2022-08-06T03:49:35;15.00;97.80
13960;DHT22;7052;51.050;3.716;2022-08-06T03:52:03;14.90;97.70
13960;DHT22;7052;51.050;3.716;2022-08-06T03:54:50;14.90;97.70
13960;DHT22;7052;51.050;3.716;2022-08-06T03:57:22;14.90;97.70
13960;DHT22;7052;51.050;3.716;2022-08-06T03:59:53;14.90;98.00
13960;DHT22;7052;51.050;3.716;2022-08-06T04:02:27;14.80;98.10
13960;DHT22;7052;51.050;3.716;2022-08-06T04:04:55;14.80;98.40
13960;DHT22;7052;51.050;3.716;2022-08-06T04:07:24;14.80;99.00
13960;DHT22;7052;51.050;3.716;2022-08-06T04:09:53;14.80;99.80
13960;DHT22;7052;51.050;3.716;2022-08-06T04:12:20;14.80;99.90
13960;DHT22;7052;51.050;3.716;2022-08-06T04:14:47;14.80;99.90
13960;DHT22;7052;51.050;3.716;2022-08-06T04:17:15;14.80;99.90
13960;DHT22;7052;51.050;3.716;2022-08-06T04:19:44;14.80;99.90
13960;DHT22;7052;51.050;3.716;2022-08-06T04:22:12;14.90;99.90
13960;DHT22;7052;51.050;3.716;2022-08-06T04:24:39;14.90;99.90
13960;DHT22;7052;51.050;3.716;2022-08-06T04:27:07;14.90;99.90
13960;DHT22;7052;51.050;3.716;2022-08-06T04:29:36;15.00;99.90
13960;DHT22;7052;51.050;3.716;2022-08-06T04:32:04;15.00;99.90
13960;DHT22;7052;51.050;3.716;2022-08-06T04:34:33;15.00;99.90
13960;DHT22;7052;51.050;3.716;2022-08-06T04:37:01;15.10;99.90
13960;DHT22;7052;51.050;3.716;2022-08-06T04:39:28;15.10;99.50
13960;DHT22;7052;51.050;3.716;2022-08-06T04:41:56;15.20;99.30
13960;DHT22;7052;51.050;3.716;2022-08-06T04:44:25;15.20;99.00
13960;DHT22;7052;51.050;3.716;2022-08-06T04:46:53;15.20;98.90
13960;DHT22;7052;51.050;3.716;2022-08-06T04:49:21;15.30;98.80
13960;DHT22;7052;51.050;3.716;2022-08-06T04:51:48;15.30;98.70
13960;DHT22;7052;51.050;3.716;2022-08-06T04:54:16;15.40;98.30
13960;DHT22;7052;51.050;3.716;2022-08-06T04:56:43;15.40;98.30
13960;DHT22;7052;51.050;3.716;2022-08-06T04:59:10;15.40;98.30
13960;DHT22;7052;51.050;3.716;2022-08-06T05:01:38;15.50;98.10
13960;DHT22;7052;51.050;3.716;2022-08-06T05:04:05;15.50;97.90
13960;DHT22;7052;51.050;3.716;2022-08-06T05:06:40;15.60;97.70
13960;DHT22;7052;51.050;3.716;2022-08-06T05:09:12;15.60;97.50
13960;DHT22;7052;51.050;3.716;2022-08-06T05:11:43;15.70;97.20
13960;DHT22;7052;51.050;3.716;2022-08-06T05:14:14;15.80;97.00
13960;DHT22;7052;51.050;3.716;2022-08-06T05:16:44;15.80;96.70
13960;DHT22;7052;51.050;3.716;2022-08-06T05:19:17;15.90;96.60
13960;DHT22;7052;51.050;3.716;2022-08-06T05:21:47;16.00;96.60
13960;DHT22;7052;51.050;3.716;2022-08-06T05:24:16;16.00;96.10
13960;DHT22;7052;51.050;3.716;2022-08-06T05:26:44;16.00;96.20
13960;DHT22;7052;51.050;3.716;2022-08-06T05:29:11;16.00;96.70
13960;DHT22;7052;51.050;3.716;2022-08-06T05:31:38;16.10;97.60
13960;DHT22;7052;51.050;3.716;2022-08-06T05:34:09;16.10;97.90
13960;DHT22;7052;51.050;3.716;2022-08-06T05:36:38;16.10;98.70
13960;DHT22;7052;51.050;3.716;2022-08-06T05:39:05;16.10;99.20
13960;DHT22;7052;51.050;3.716;2022-08-06T05:41:32;16.10;99.40
13960;DHT22;7052;51.050;3.716;2022-08-06T05:44:00;16.10;99.70
13960;DHT22;7052;51.050;3.716;2022-08-06T05:46:31;16.20;99.30
13960;DHT22;7052;51.050;3.716;2022-08-06T05:49:04;16.20;99.10
13960;DHT22;7052;51.050;3.716;2022-08-06T05:51:39;16.20;98.90
13960;DHT22;7052;51.050;3.716;2022-08-06T05:54:22;16.20;98.90
13960;DHT22;7052;51.050;3.716;2022-08-06T05:56:51;16.30;98.70
13960;DHT22;7052;51.050;3.716;2022-08-06T05:59:26;16.30;98.50
13960;DHT22;7052;51.050;3.716;2022-08-06T06:01:55;16.40;98.60
13960;DHT22;7052;51.050;3.716;2022-08-06T06:04:23;16.50;98.80
13960;DHT22;7052;51.050;3.716;2022-08-06T06:06:52;16.50;98.90
13960;DHT22;7052;51.050;3.716;2022-08-06T06:09:19;16.60;98.90
13960;DHT22;7052;51.050;3.716;2022-08-06T06:11:47;16.70;98.90
13960;DHT22;7052;51.050;3.716;2022-08-06T06:14:33;16.70;99.40
13960;DHT22;7052;51.050;3.716;2022-08-06T06:19:57;16.80;99.70
13960;DHT22;7052;51.050;3.716;2022-08-06T06:22:33;17.00;99.90
13960;DHT22;7052;51.050;3.716;2022-08-06T06:25:06;17.30;99.50
13960;DHT22;7052;51.050;3.716;2022-08-06T06:27:38;17.80;98.60
13960;DHT22;7052;51.050;3.716;2022-08-06T06:30:13;18.50;96.10
13960;DHT22;7052;51.050;3.716;2022-08-06T06:32:45;19.10;93.00
13960;DHT22;7052;51.050;3.716;2022-08-06T06:35:23;19.50;90.00
13960;DHT22;7052;51.050;3.716;2022-08-06T06:38:01;19.80;83.40
13960;DHT22;7052;51.050;3.716;2022-08-06T06:40:41;20.00;78.60
13960;DHT22;7052;51.050;3.716;2022-08-06T06:43:15;20.10;74.70
13960;DHT22;7052;51.050;3.716;2022-08-06T06:45:50;20.30;70.40
13960;DHT22;7052;51.050;3.716;2022-08-06T06:48:21;20.50;68.10
13960;DHT22;7052;51.050;3.716;2022-08-06T06:50:51;20.60;66.40
13960;DHT22;7052;51.050;3.716;2022-08-06T06:53:21;20.90;63.80
13960;DHT22;7052;51.050;3.716;2022-08-06T06:55:53;21.10;62.00
13960;DHT22;7052;51.050;3.716;2022-08-06T06:58:27;21.20;59.50
13960;DHT22;7052;51.050;3.716;2022-08-06T07:00:58;21.30;59.00
13960;DHT22;7052;51.050;3.716;2022-08-06T07:03:25;21.20;59.50
13960;DHT22;7052;51.050;3.716;2022-08-06T07:05:54;21.20;59.40
13960;DHT22;7052;51.050;3.716;2022-08-06T07:08:26;21.00;59.70
13960;DHT22;7052;51.050;3.716;2022-08-06T07:10:55;20.80;60.50
13960;DHT22;7052;51.050;3.716;2022-08-06T07:13:24;20.60;61.20
13960;DHT22;7052;51.050;3.716;2022-08-06T07:15:52;20.60;61.90
13960;DHT22;7052;51.050;3.716;2022-08-06T07:18:21;20.60;62.00
13960;DHT22;7052;51.050;3.716;2022-08-06T07:20:52;20.60;62.20
13960;DHT22;7052;51.050;3.716;2022-08-06T07:23:19;20.70;61.80
13960;DHT22;7052;51.050;3.716;2022-08-06T07:25:50;20.70;61.70
13960;DHT22;7052;51.050;3.716;2022-08-06T07:28:19;20.60;63.10
13960;DHT22;7052;51.050;3.716;2022-08-06T07:30:49;20.70;62.80
13960;DHT22;7052;51.050;3.716;2022-08-06T07:33:17;20.90;61.10
13960;DHT22;7052;51.050;3.716;2022-08-06T07:35:46;21.00;60.10
13960;DHT22;7052;51.050;3.716;2022-08-06T07:38:18;21.10;60.30
13960;DHT22;7052;51.050;3.716;2022-08-06T07:40:50;21.20;60.90
13960;DHT22;7052;51.050;3.716;2022-08-06T07:43:21;21.30;59.70
13960;DHT22;7052;51.050;3.716;2022-08-06T07:45:51;21.40;59.10
13960;DHT22;7052;51.050;3.716;2022-08-06T07:48:22;21.30;58.80
13960;DHT22;7052;51.050;3.716;2022-08-06T07:50:50;21.20;59.70
13960;DHT22;7052;51.050;3.716;2022-08-06T07:53:18;21.00;60.10
13960;DHT22;7052;51.050;3.716;2022-08-06T07:55:46;20.90;59.40
13960;DHT22;7052;51.050;3.716;2022-08-06T07:58:14;20.70;60.40
13960;DHT22;7052;51.050;3.716;2022-08-06T08:00:42;20.50;61.80
13960;DHT22;7052;51.050;3.716;2022-08-06T08:03:10;20.50;62.50
13960;DHT22;7052;51.050;3.716;2022-08-06T08:05:55;20.40;62.70
13960;DHT22;7052;51.050;3.716;2022-08-06T08:08:40;20.50;62.70
13960;DHT22;7052;51.050;3.716;2022-08-06T08:11:07;20.50;60.70
13960;DHT22;7052;51.050;3.716;2022-08-06T08:13:36;20.50;60.10
13960;DHT22;7052;51.050;3.716;2022-08-06T08:16:07;20.60;60.00
13960;DHT22;7052;51.050;3.716;2022-08-06T08:18:35;20.70;60.20
13960;DHT22;7052;51.050;3.716;2022-08-06T08:21:02;20.80;59.50
13960;DHT22;7052;51.050;3.716;2022-08-06T08:23:29;20.90;59.10
13960;DHT22;7052;51.050;3.716;2022-08-06T08:25:59;20.90;59.00
13960;DHT22;7052;51.050;3.716;2022-08-06T08:28:26;21.00;58.30
13960;DHT22;7052;51.050;3.716;2022-08-06T08:30:54;21.00;58.20
13960;DHT22;7052;51.050;3.716;2022-08-06T08:33:24;21.00;58.20
13960;DHT22;7052;51.050;3.716;2022-08-06T08:35:51;21.00;58.30
13960;DHT22;7052;51.050;3.716;2022-08-06T08:38:18;21.10;58.40
13960;DHT22;7052;51.050;3.716;2022-08-06T08:40:47;21.00;58.10
13960;DHT22;7052;51.050;3.716;2022-08-06T08:43:23;21.00;58.00
13960;DHT22;7052;51.050;3.716;2022-08-06T08:45:53;21.20;57.40
13960;DHT22;7052;51.050;3.716;2022-08-06T08:48:24;21.30;57.80
13960;DHT22;7052;51.050;3.716;2022-08-06T08:50:55;21.40;56.80
13960;DHT22;7052;51.050;3.716;2022-08-06T08:53:33;21.40;57.00
13960;DHT22;7052;51.050;3.716;2022-08-06T08:56:01;21.50;56.60
13960;DHT22;7052;51.050;3.716;2022-08-06T08:58:29;21.40;56.60
13960;DHT22;7052;51.050;3.716;2022-08-06T09:00:59;21.30;56.70
13960;DHT22;7052;51.050;3.716;2022-08-06T09:03:26;21.20;56.60
13960;DHT22;7052;51.050;3.716;2022-08-06T09:05:53;21.10;57.40
13960;DHT22;7052;51.050;3.716;2022-08-06T09:08:21;21.00;57.80
13960;DHT22;7052;51.050;3.716;2022-08-06T09:10:48;21.00;58.20
13960;DHT22;7052;51.050;3.716;2022-08-06T09:13:16;21.00;58.30
13960;DHT22;7052;51.050;3.716;2022-08-06T09:15:43;21.10;58.00
13960;DHT22;7052;51.050;3.716;2022-08-06T09:18:11;21.10;57.70
13960;DHT22;7052;51.050;3.716;2022-08-06T09:20:38;21.00;58.10
13960;DHT22;7052;51.050;3.716;2022-08-06T09:23:05;20.80;58.70
13960;DHT22;7052;51.050;3.716;2022-08-06T09:25:40;20.80;59.10
13960;DHT22;7052;51.050;3.716;2022-08-06T09:28:10;20.90;59.20
13960;DHT22;7052;51.050;3.716;2022-08-06T09:30:39;20.80;59.00
13960;DHT22;7052;51.050;3.716;2022-08-06T09:33:16;20.80;59.60
13960;DHT22;7052;51.050;3.716;2022-08-06T09:35:42;20.80;59.80
13960;DHT22;7052;51.050;3.716;2022-08-06T09:38:10;20.90;59.70
13960;DHT22;7052;51.050;3.716;2022-08-06T09:40:37;21.00;59.40
13960;DHT22;7052;51.050;3.716;2022-08-06T09:43:04;21.10;58.70
13960;DHT22;7052;51.050;3.716;2022-08-06T09:45:31;21.20;59.40
13960;DHT22;7052;51.050;3.716;2022-08-06T09:48:03;21.20;58.90
13960;DHT22;7052;51.050;3.716;2022-08-06T09:50:40;21.10;59.20
13960;DHT22;7052;51.050;3.716;2022-08-06T09:53:08;20.90;59.10
13960;DHT22;7052;51.050;3.716;2022-08-06T09:55:35;20.90;59.30
13960;DHT22;7052;51.050;3.716;2022-08-06T09:58:02;21.00;59.40
13960;DHT22;7052;51.050;3.716;2022-08-06T10:00:31;21.10;59.10
13960;DHT22;7052;51.050;3.716;2022-08-06T10:02:59;21.30;58.60
13960;DHT22;7052;51.050;3.716;2022-08-06T10:05:27;21.50;55.80
13960;DHT22;7052;51.050;3.716;2022-08-06T10:08:05;21.60;53.50
13960;DHT22;7052;51.050;3.716;2022-08-06T10:10:45;21.80;51.60
13960;DHT22;7052;51.050;3.716;2022-08-06T10:13:17;21.90;50.20
13960;DHT22;7052;51.050;3.716;2022-08-06T10:15:44;22.00;49.90
13960;DHT22;7052;51.050;3.716;2022-08-06T10:18:29;22.00;49.80
13960;DHT22;7052;51.050;3.716;2022-08-06T10:21:00;22.20;49.10
13960;DHT22;7052;51.050;3.716;2022-08-06T10:23:30;22.30;48.50
13960;DHT22;7052;51.050;3.716;2022-08-06T10:25:57;22.50;48.40
13960;DHT22;7052;51.050;3.716;2022-08-06T10:28:26;22.70;48.10
13960;DHT22;7052;51.050;3.716;2022-08-06T10:30:54;22.80;47.20
13960;DHT22;7052;51.050;3.716;2022-08-06T10:33:23;23.00;46.50
13960;DHT22;7052;51.050;3.716;2022-08-06T10:35:54;23.10;46.20
13960;DHT22;7052;51.050;3.716;2022-08-06T10:38:24;23.30;45.50
13960;DHT22;7052;51.050;3.716;2022-08-06T10:40:53;23.50;45.60
13960;DHT22;7052;51.050;3.716;2022-08-06T10:43:23;23.70;44.90
13960;DHT22;7052;51.050;3.716;2022-08-06T10:45:51;24.00;44.80
13960;DHT22;7052;51.050;3.716;2022-08-06T10:48:18;24.30;44.30
13960;DHT22;7052;51.050;3.716;2022-08-06T10:50:45;24.40;43.50
13960;DHT22;7052;51.050;3.716;2022-08-06T10:53:13;24.40;43.00
13960;DHT22;7052;51.050;3.716;2022-08-06T10:55:41;24.40;42.90
13960;DHT22;7052;51.050;3.716;2022-08-06T10:58:10;24.50;42.50
13960;DHT22;7052;51.050;3.716;2022-08-06T11:00:37;24.70;42.50
13960;DHT22;7052;51.050;3.716;2022-08-06T11:03:14;24.70;41.60
13960;DHT22;7052;51.050;3.716;2022-08-06T11:05:43;24.70;42.10
13960;DHT22;7052;51.050;3.716;2022-08-06T11:08:34;24.40;41.80
13960;DHT22;7052;51.050;3.716;2022-08-06T11:11:25;24.10;42.00
13960;DHT22;7052;51.050;3.716;2022-08-06T11:14:03;24.00;43.10
13960;DHT22;7052;51.050;3.716;2022-08-06T11:16:31;24.10;43.20
13960;DHT22;7052;51.050;3.716;2022-08-06T11:19:00;24.20;43.10
13960;DHT22;7052;51.050;3.716;2022-08-06T11:21:35;24.40;43.10
13960;DHT22;7052;51.050;3.716;2022-08-06T11:24:04;24.60;42.20
13960;DHT22;7052;51.050;3.716;2022-08-06T11:26:33;24.70;41.70
13960;DHT22;7052;51.050;3.716;2022-08-06T11:29:04;24.70;41.10
13960;DHT22;7052;51.050;3.716;2022-08-06T11:31:39;24.40;41.30
13960;DHT22;7052;51.050;3.716;2022-08-06T11:34:11;24.20;41.60
13960;DHT22;7052;51.050;3.716;2022-08-06T11:36:48;24.00;41.80
13960;DHT22;7052;51.050;3.716;2022-08-06T11:39:17;23.90;41.20
13960;DHT22;7052;51.050;3.716;2022-08-06T11:41:52;23.80;41.10
13960;DHT22;7052;51.050;3.716;2022-08-06T11:44:21;23.80;41.30
13960;DHT22;7052;51.050;3.716;2022-08-06T11:46:50;23.80;41.70
13960;DHT22;7052;51.050;3.716;2022-08-06T11:49:37;23.70;42.00
13960;DHT22;7052;51.050;3.716;2022-08-06T11:52:04;23.70;42.00
13960;DHT22;7052;51.050;3.716;2022-08-06T11:54:33;23.60;41.80
13960;DHT22;7052;51.050;3.716;2022-08-06T11:57:24;23.50;41.30
13960;DHT22;7052;51.050;3.716;2022-08-06T12:00:07;23.40;40.50
13960;DHT22;7052;51.050;3.716;2022-08-06T12:02:55;23.50;40.90
13960;DHT22;7052;51.050;3.716;2022-08-06T12:05:39;23.70;41.20
13960;DHT22;7052;51.050;3.716;2022-08-06T12:08:22;23.90;40.90
13960;DHT22;7052;51.050;3.716;2022-08-06T12:11:27;24.00;40.10
13960;DHT22;7052;51.050;3.716;2022-08-06T12:13:56;24.10;40.10
13960;DHT22;7052;51.050;3.716;2022-08-06T12:16:33;24.00;40.10
13960;DHT22;7052;51.050;3.716;2022-08-06T12:19:02;23.90;39.80
13960;DHT22;7052;51.050;3.716;2022-08-06T12:21:30;23.70;41.20
13960;DHT22;7052;51.050;3.716;2022-08-06T12:23:58;23.60;42.00
13960;DHT22;7052;51.050;3.716;2022-08-06T12:26:30;23.60;41.10
13960;DHT22;7052;51.050;3.716;2022-08-06T12:29:00;23.90;40.90
13960;DHT22;7052;51.050;3.716;2022-08-06T12:31:29;24.30;40.20
13960;DHT22;7052;51.050;3.716;2022-08-06T12:33:57;24.50;39.90
13960;DHT22;7052;51.050;3.716;2022-08-06T12:36:29;24.70;39.40
13960;DHT22;7052;51.050;3.716;2022-08-06T12:38:58;24.80;39.50
13960;DHT22;7052;51.050;3.716;2022-08-06T12:41:39;24.90;39.30
13960;DHT22;7052;51.050;3.716;2022-08-06T12:44:08;24.80;38.90
13960;DHT22;7052;51.050;3.716;2022-08-06T12:46:35;24.60;37.90
13960;DHT22;7052;51.050;3.716;2022-08-06T12:49:04;24.40;38.50
13960;DHT22;7052;51.050;3.716;2022-08-06T12:51:32;24.10;39.50
13960;DHT22;7052;51.050;3.716;2022-08-06T12:54:01;23.80;40.10
13960;DHT22;7052;51.050;3.716;2022-08-06T12:56:30;23.70;40.20
13960;DHT22;7052;51.050;3.716;2022-08-06T12:59:01;23.90;40.40
13960;DHT22;7052;51.050;3.716;2022-08-06T13:01:30;24.10;40.00
13960;DHT22;7052;51.050;3.716;2022-08-06T13:03:58;24.50;39.40
13960;DHT22;7052;51.050;3.716;2022-08-06T13:06:33;24.90;38.50
13960;DHT22;7052;51.050;3.716;2022-08-06T13:09:01;25.00;37.90
13960;DHT22;7052;51.050;3.716;2022-08-06T13:11:34;25.20;37.70
13960;DHT22;7052;51.050;3.716;2022-08-06T13:14:09;25.20;37.70
13960;DHT22;7052;51.050;3.716;2022-08-06T13:16:42;25.10;37.20
13960;DHT22;7052;51.050;3.716;2022-08-06T13:19:11;24.70;37.60
13960;DHT22;7052;51.050;3.716;2022-08-06T13:21:41;24.70;38.30
13960;DHT22;7052;51.050;3.716;2022-08-06T13:24:09;24.70;38.30
13960;DHT22;7052;51.050;3.716;2022-08-06T13:26:49;24.90;38.20
13960;DHT22;7052;51.050;3.716;2022-08-06T13:29:17;25.10;38.10
13960;DHT22;7052;51.050;3.716;2022-08-06T13:31:46;25.20;37.90
13960;DHT22;7052;51.050;3.716;2022-08-06T13:34:14;25.30;37.90
13960;DHT22;7052;51.050;3.716;2022-08-06T13:36:51;25.50;37.50
13960;DHT22;7052;51.050;3.716;2022-08-06T13:39:20;25.40;37.30
13960;DHT22;7052;51.050;3.716;2022-08-06T13:41:47;25.20;37.50
13960;DHT22;7052;51.050;3.716;2022-08-06T13:44:29;24.80;38.20
13960;DHT22;7052;51.050;3.716;2022-08-06T13:46:57;24.50;38.80
13960;DHT22;7052;51.050;3.716;2022-08-06T13:49:24;24.40;39.80
13960;DHT22;7052;51.050;3.716;2022-08-06T13:51:52;24.10;39.60
13960;DHT22;7052;51.050;3.716;2022-08-06T13:54:21;23.90;39.90
13960;DHT22;7052;51.050;3.716;2022-08-06T13:56:48;23.80;40.10
13960;DHT22;7052;51.050;3.716;2022-08-06T13:59:16;23.90;39.70
13960;DHT22;7052;51.050;3.716;2022-08-06T14:01:43;24.20;39.20
13960;DHT22;7052;51.050;3.716;2022-08-06T14:04:11;24.40;38.80
13960;DHT22;7052;51.050;3.716;2022-08-06T14:06:38;24.70;38.80
13960;DHT22;7052;51.050;3.716;2022-08-06T14:09:06;24.70;38.10
13960;DHT22;7052;51.050;3.716;2022-08-06T14:11:33;24.90;37.90
13960;DHT22;7052;51.050;3.716;2022-08-06T14:14:00;25.10;37.70
13960;DHT22;7052;51.050;3.716;2022-08-06T14:16:26;25.10;37.60
13960;DHT22;7052;51.050;3.716;2022-08-06T14:18:53;25.20;37.90
13960;DHT22;7052;51.050;3.716;2022-08-06T14:21:21;25.20;37.90
13960;DHT22;7052;51.050;3.716;2022-08-06T14:23:48;25.20;38.00
13960;DHT22;7052;51.050;3.716;2022-08-06T14:26:16;25.30;37.50
13960;DHT22;7052;51.050;3.716;2022-08-06T14:28:43;25.40;37.40
13960;DHT22;7052;51.050;3.716;2022-08-06T14:31:10;25.60;36.30
13960;DHT22;7052;51.050;3.716;2022-08-06T14:33:36;25.60;36.70
13960;DHT22;7052;51.050;3.716;2022-08-06T14:36:04;25.80;36.40
13960;DHT22;7052;51.050;3.716;2022-08-06T14:38:31;25.80;36.20
13960;DHT22;7052;51.050;3.716;2022-08-06T14:40:57;25.60;36.00
13960;DHT22;7052;51.050;3.716;2022-08-06T14:43:43;25.30;36.40
13960;DHT22;7052;51.050;3.716;2022-08-06T14:46:28;25.20;37.00
13960;DHT22;7052;51.050;3.716;2022-08-06T14:48:56;24.90;37.40
13960;DHT22;7052;51.050;3.716;2022-08-06T14:51:23;24.70;37.80
13960;DHT22;7052;51.050;3.716;2022-08-06T14:53:50;24.70;38.20
13960;DHT22;7052;51.050;3.716;2022-08-06T14:56:16;24.70;37.90
13960;DHT22;7052;51.050;3.716;2022-08-06T14:58:46;25.00;38.00
13960;DHT22;7052;51.050;3.716;2022-08-06T15:01:12;25.10;36.90
13960;DHT22;7052;51.050;3.716;2022-08-06T15:03:39;25.30;36.90
13960;DHT22;7052;51.050;3.716;2022-08-06T15:06:06;25.20;36.60
13960;DHT22;7052;51.050;3.716;2022-08-06T15:08:33;25.30;36.80
13960;DHT22;7052;51.050;3.716;2022-08-06T15:11:00;25.40;36.60
13960;DHT22;7052;51.050;3.716;2022-08-06T15:13:27;25.50;36.40
13960;DHT22;7052;51.050;3.716;2022-08-06T15:15:55;25.40;36.60
13960;DHT22;7052;51.050;3.716;2022-08-06T15:18:22;25.20;36.80
13960;DHT22;7052;51.050;3.716;2022-08-06T15:20:49;24.90;37.20
13960;DHT22;7052;51.050;3.716;2022-08-06T15:23:16;24.60;37.30
13960;DHT22;7052;51.050;3.716;2022-08-06T15:25:43;24.40;37.40
13960;DHT22;7052;51.050;3.716;2022-08-06T15:28:10;24.20;37.80
13960;DHT22;7052;51.050;3.716;2022-08-06T15:30:39;24.00;37.90
13960;DHT22;7052;51.050;3.716;2022-08-06T15:33:07;23.80;37.90
13960;DHT22;7052;51.050;3.716;2022-08-06T15:35:34;23.70;38.40
13960;DHT22;7052;51.050;3.716;2022-08-06T15:38:01;23.70;38.50
13960;DHT22;7052;51.050;3.716;2022-08-06T15:40:28;23.90;38.30
13960;DHT22;7052;51.050;3.716;2022-08-06T15:42:55;24.10;38.50
13960;DHT22;7052;51.050;3.716;2022-08-06T15:45:22;24.30;38.10
13960;DHT22;7052;51.050;3.716;2022-08-06T15:47:49;24.40;38.10
13960;DHT22;7052;51.050;3.716;2022-08-06T15:50:17;24.40;38.10
13960;DHT22;7052;51.050;3.716;2022-08-06T15:52:44;24.30;38.30
13960;DHT22;7052;51.050;3.716;2022-08-06T15:55:11;24.30;38.40
13960;DHT22;7052;51.050;3.716;2022-08-06T15:57:38;24.20;38.20
13960;DHT22;7052;51.050;3.716;2022-08-06T16:00:06;24.30;38.10
13960;DHT22;7052;51.050;3.716;2022-08-06T16:02:33;24.40;38.30
13960;DHT22;7052;51.050;3.716;2022-08-06T16:05:00;24.60;38.30
13960;DHT22;7052;51.050;3.716;2022-08-06T16:07:28;24.70;37.70